Sign-in with your pilot id or email, or register

ICAO: EFHK Name / Country: Helsinki Vantaa / Finland
Latitude: 60.3172 Longitude: 24.9633
Total Arrivals:
Strict Standards: Non-static method AirportData::getarrflights() should not be called statically, assuming $this from incompatible context in /var/www/customers/vh-7192/web/home/phpvms/core/templates/airport_info.tpl on line 18
0
Total Departures:
Strict Standards: Non-static method AirportData::getdeptflights() should not be called statically, assuming $this from incompatible context in /var/www/customers/vh-7192/web/home/phpvms/core/templates/airport_info.tpl on line 21
9
Latest Arrival: (-) Latest Departure: MTA5PM (EFHK-LHBP) Tibor Berces
Metar: EFHK 172250Z 35006KT 9999 FEW040 07/06 Q0998 NOSIG
More info

Charts for EFHK


NOTAM


Warning: file_get_contents(http://api.vateud.net/notams/EFHK.json): failed to open stream: Redirection limit reached, aborting in /var/www/customers/vh-7192/web/home/phpvms/core/common/NOTAMSData.class.php on line 18

Warning: Invalid argument supplied for foreach() in /var/www/customers/vh-7192/web/home/phpvms/core/common/NOTAMSData.class.php on line 22

Helsinki Vantaa